Time;durP1;ratioP1;P1;durP2;ratioP2;P2;SDS_P1;SDS_P2;PMS_P1;PMS_P2;Temp;Humidity;BMP_temperature;BMP_pressure;BME280_temperature;BME280_humidity;BME280_pressure;Samples;Min_cycle;Max_cycle;Signal;HPM_P1;HPM_P2
2022/09/12 00:01:14;;;;;;;51.38;28.80;;;;;;;16.08;98.06;101601.66;5037273;28;20502;-38
2022/09/12 00:03:40;;;;;;;55.17;28.25;;;;;;;16.07;97.94;101599.16;5050202;28;20521;-38
2022/09/12 00:06:23;;;;;;;56.40;28.10;;;;;;;16.08;98.46;101588.09;5036135;28;20155;-39
2022/09/12 00:08:59;;;;;;;57.05;29.13;;;;;;;16.05;98.64;101590.38;5048695;28;20029;-40
2022/09/12 00:11:25;;;;;;;58.88;30.95;;;;;;;16.07;98.64;101593.72;5021045;28;20567;-38
2022/09/12 00:13:50;;;;;;;57.67;29.23;;;;;;;16.05;98.41;101587.66;5040100;28;20029;-37
2022/09/12 00:16:19;;;;;;;54.42;28.20;;;;;;;16.03;98.38;101585.13;5032495;28;20021;-38
2022/09/12 00:18:45;;;;;;;57.75;29.40;;;;;;;16.06;98.51;101589.31;5049739;28;20483;-37
2022/09/12 00:21:11;;;;;;;59.65;30.00;;;;;;;16.02;98.22;101586.19;5032138;28;20034;-37
2022/09/12 00:23:36;;;;;;;58.72;30.15;;;;;;;16.04;98.33;101586.00;5051991;28;20040;-37
2022/09/12 00:26:04;;;;;;;63.72;29.58;;;;;;;16.02;98.43;101586.19;5049140;28;20033;-38
2022/09/12 00:28:30;;;;;;;56.35;29.60;;;;;;;15.99;98.00;101587.41;5040455;28;20035;-38
2022/09/12 00:30:55;;;;;;;57.92;31.15;;;;;;;15.98;97.92;101577.59;5051483;28;20033;-38
2022/09/12 00:33:20;;;;;;;58.60;30.42;;;;;;;15.99;97.86;101587.41;5048784;28;20568;-38
2022/09/12 00:35:48;;;;;;;54.92;28.65;;;;;;;15.98;98.17;101579.47;5049316;28;20436;-37
2022/09/12 00:38:14;;;;;;;;;;;;;;;15.96;97.89;101582.38;5051017;28;20037;-38
2022/09/12 00:40:40;;;;;;;57.92;29.52;;;;;;;15.97;98.11;101583.22;5048859;28;20390;-38
2022/09/12 00:43:13;;;;;;;57.42;30.77;;;;;;;15.95;98.02;101574.44;5049620;28;20039;-38
2022/09/12 00:45:41;;;;;;;66.53;32.47;;;;;;;15.96;98.53;101587.81;5050099;28;20342;-37
2022/09/12 00:48:17;;;;;;;62.45;29.27;;;;;;;15.94;98.64;101573.59;5049064;28;20021;-37
2022/09/12 00:50:43;;;;;;;55.78;29.50;;;;;;;15.94;98.59;101573.59;5052386;28;20021;-37
2022/09/12 00:53:08;;;;;;;62.40;30.10;;;;;;;15.98;98.54;101579.47;5051077;28;20048;-38
2022/09/12 00:55:36;;;;;;;66.18;31.58;;;;;;;15.96;98.17;101574.25;5036498;28;20060;-38
2022/09/12 00:58:05;;;;;;;56.63;29.48;;;;;;;15.97;98.00;101570.47;5055989;28;20334;-38
2022/09/12 01:00:30;;;;;;;57.30;29.27;;;;;;;15.97;98.05;101567.75;5056354;28;20049;-38
2022/09/12 01:03:00;;;;;;;57.80;30.15;;;;;;;15.94;97.50;101561.91;5041700;28;20058;-39
2022/09/12 01:05:26;;;;;;;57.42;30.23;;;;;;;15.95;97.29;101561.69;5037885;28;20039;-38
2022/09/12 01:07:53;;;;;;;60.13;29.42;;;;;;;15.96;96.74;101555.25;5035544;28;20491;-38
2022/09/12 01:10:18;;;;;;;54.33;29.02;;;;;;;15.94;96.47;101551.88;5057759;28;20514;-37
2022/09/12 01:12:44;;;;;;;56.03;28.60;;;;;;;15.92;96.09;101553.94;5052564;28;20028;-38
2022/09/12 01:15:10;;;;;;;69.25;28.65;;;;;;;15.92;97.05;101553.94;5052619;28;20166;-37
2022/09/12 01:17:47;;;;;;;56.00;28.65;;;;;;;15.91;97.36;101557.72;5054506;28;20098;-38
2022/09/12 01:20:40;;;;;;;54.65;27.67;;;;;;;15.92;96.93;101553.94;5038344;28;20550;-37
2022/09/12 01:23:31;;;;;;;52.33;28.23;;;;;;;15.91;97.15;101557.72;5033855;28;20040;-38
2022/09/12 01:26:25;;;;;;;57.80;27.30;;;;;;;15.91;97.18;101562.31;5024655;28;20021;-37
2022/09/12 01:29:22;;;;;;;54.33;28.67;;;;;;;15.89;97.10;101548.94;5053327;28;20162;-37
2022/09/12 01:31:53;;;;;;;;;;;;;;;15.85;96.35;101544.94;4991956;28;20044;-37
2022/09/12 01:34:42;;;;;;;61.05;28.05;;;;;;;15.82;96.14;101547.22;5043640;28;20015;-37
2022/09/12 01:37:35;;;;;;;55.67;28.13;;;;;;;15.78;96.08;101541.34;5042919;28;20116;-38
2022/09/12 01:40:08;;;;;;;57.13;27.48;;;;;;;15.77;96.27;101550.50;5040844;28;20187;-38
2022/09/12 01:42:44;;;;;;;52.75;27.83;;;;;;;15.75;96.89;101544.47;5051991;28;20111;-38
2022/09/12 01:45:32;;;;;;;56.90;26.00;;;;;;;15.73;97.28;101536.50;5033823;28;20112;-37
2022/09/12 01:48:03;;;;;;;54.25;26.52;;;;;;;15.73;97.34;101530.25;5051772;28;20041;-38
2022/09/12 01:50:35;;;;;;;58.13;29.23;;;;;;;15.74;97.37;101529.19;5053433;28;20486;-36
2022/09/12 01:53:13;;;;;;;51.15;27.73;;;;;;;15.73;96.87;101522.09;5035712;28;20021;-38
2022/09/12 01:55:45;;;;;;;58.22;27.23;;;;;;;15.70;96.65;101526.06;5037494;28;20029;-38
2022/09/12 01:58:15;;;;;;;51.35;26.27;;;;;;;15.71;96.85;101521.47;5037880;28;20021;-39
2022/09/12 02:00:54;;;;;;;56.72;27.13;;;;;;;15.70;97.42;101515.22;5033846;28;20055;-37
2022/09/12 02:03:24;;;;;;;79.20;29.38;;;;;;;15.69;97.39;101520.81;5068248;28;20032;-38
2022/09/12 02:08:22;;;;;;;63.70;28.67;;;;;;;15.69;97.22;101515.38;5027606;28;20044;-38
2022/09/12 02:10:56;;;;;;;55.33;27.88;;;;;;;15.66;96.38;101505.75;5034174;28;20045;-39
2022/09/12 02:13:59;;;;;;;58.95;26.95;;;;;;;15.61;96.05;101496.53;5035119;28;20052;-39
2022/09/12 02:16:29;;;;;;;63.75;29.13;;;;;;;15.58;96.19;101493.16;5018617;28;20061;-39
2022/09/12 02:18:59;;;;;;;60.58;27.20;;;;;;;15.59;96.41;101497.56;5034821;28;20109;-42
2022/09/12 02:21:25;;;;;;;57.88;26.25;;;;;;;15.62;96.13;101495.50;5017312;28;20444;-40
2022/09/12 02:23:56;;;;;;;59.40;26.83;;;;;;;15.65;95.81;101487.78;5015816;28;20010;-40
2022/09/12 02:26:34;;;;;;;55.80;26.20;;;;;;;15.62;95.40;101490.09;5014883;28;20021;-43
2022/09/12 02:28:59;;;;;;;;;;;;;;;15.57;95.19;101485.25;5033053;28;20018;-40
2022/09/12 02:31:33;;;;;;;58.78;27.92;;;;;;;15.56;95.12;101484.41;5033982;28;19933;-41
2022/09/12 02:34:19;;;;;;;60.28;29.02;;;;;;;15.57;95.12;101479.81;5016111;28;20026;-40
2022/09/12 02:36:53;;;;;;;58.67;28.13;;;;;;;15.54;94.98;101482.94;5013280;28;20038;-40
2022/09/12 02:39:19;;;;;;;60.13;28.48;;;;;;;15.54;94.71;101483.75;5028362;28;20046;-39
2022/09/12 02:41:47;;;;;;;60.15;27.63;;;;;;;15.53;94.75;101490.25;5030776;28;20090;-40
2022/09/12 02:44:12;;;;;;;53.00;25.42;;;;;;;15.55;94.42;101488.13;5034844;28;20014;-40
2022/09/12 02:46:44;;;;;;;58.60;27.95;;;;;;;15.56;94.50;101486.25;5035317;28;20026;-39
2022/09/12 02:49:09;;;;;;;54.13;26.42;;;;;;;15.59;94.72;101488.59;5017163;28;20037;-40
2022/09/12 02:51:34;;;;;;;53.63;26.85;;;;;;;15.62;94.94;101482.78;5034699;28;20029;-40
2022/09/12 02:54:01;;;;;;;63.05;27.65;;;;;;;15.63;94.35;101478.19;5034606;28;20094;-39
2022/09/12 02:56:29;;;;;;;65.07;28.58;;;;;;;15.60;93.89;101476.69;5034864;28;20014;-40
2022/09/12 02:59:00;;;;;;;58.03;27.05;;;;;;;15.61;93.56;101474.81;5033439;28;20033;-40
2022/09/12 03:02:00;;;;;;;60.25;27.10;;;;;;;15.67;93.42;101474.03;5033286;28;20037;-41
2022/09/12 03:04:37;;;;;;;62.22;26.85;;;;;;;15.67;93.25;101465.91;5032150;28;20030;-40
2022/09/12 03:07:41;;;;;;;57.60;27.25;;;;;;;15.72;93.26;101466.16;5030871;28;20046;-39
2022/09/12 03:10:32;;;;;;;58.33;26.95;;;;;;;15.70;92.69;101465.53;4920361;29;20043;-39
2022/09/12 03:13:16;;;;;;;55.70;26.85;;;;;;;15.76;92.76;101467.44;4927401;29;20040;-40
2022/09/12 03:16:19;;;;;;;50.15;25.10;;;;;;;15.77;92.33;101466.38;4997051;28;20100;-39
2022/09/12 03:18:56;;;;;;;56.58;25.60;;;;;;;15.78;92.02;101465.34;5015985;28;20046;-39
2022/09/12 03:21:42;;;;;;;54.53;25.58;;;;;;;15.80;92.10;101455.16;5025605;28;20034;-40
2022/09/12 03:24:24;;;;;;;55.95;26.02;;;;;;;15.77;92.28;101458.22;5029820;28;20026;-40
2022/09/12 03:26:57;;;;;;;53.50;26.02;;;;;;;15.74;92.20;101458.63;5006482;28;20060;-41
2022/09/12 03:29:23;;;;;;;55.20;24.80;;;;;;;15.77;92.17;101447.38;5010209;28;20026;-42
2022/09/12 03:31:57;;;;;;;59.63;25.10;;;;;;;15.74;92.05;101448.63;5010145;28;20080;-40
2022/09/12 03:34:24;;;;;;;55.42;25.58;;;;;;;15.73;92.41;101443.41;5014526;28;20026;-39
2022/09/12 03:36:49;;;;;;;60.10;26.92;;;;;;;15.74;92.33;101453.22;5020261;28;20094;-41
2022/09/12 03:39:15;;;;;;;59.83;27.38;;;;;;;15.66;92.40;101450.63;5019048;28;20057;-42
2022/09/12 03:41:40;;;;;;;54.25;25.73;;;;;;;15.63;92.59;101448.34;5026761;28;20038;-39
2022/09/12 03:44:06;;;;;;;57.58;28.15;;;;;;;15.62;92.79;101449.38;5013085;28;20026;-41
2022/09/12 03:46:31;;;;;;;60.17;29.33;;;;;;;15.56;92.92;101446.44;5019816;28;20018;-41
2022/09/12 03:48:57;;;;;;;58.22;25.38;;;;;;;15.56;93.53;101446.44;5014181;28;20081;-41
2022/09/12 03:51:22;;;;;;;56.10;26.77;;;;;;;15.53;93.75;101444.13;5013371;28;20046;-41
2022/09/12 03:53:47;;;;;;;56.08;26.08;;;;;;;15.55;93.96;101450.16;5012483;28;20030;-40
2022/09/12 03:56:13;;;;;;;63.35;26.50;;;;;;;15.55;94.48;101450.16;5019861;28;20046;-39
2022/09/12 03:58:39;;;;;;;60.50;29.00;;;;;;;15.56;94.41;101451.84;5011832;28;20019;-40
2022/09/12 04:01:13;;;;;;;66.28;27.75;;;;;;;15.54;94.04;101453.91;5023984;28;20041;-40
2022/09/12 04:03:39;;;;;;;62.55;28.10;;;;;;;15.52;93.73;101441.59;5013408;28;20026;-39
2022/09/12 04:06:06;;;;;;;66.53;30.73;;;;;;;15.49;93.91;101448.25;5020323;28;20021;-40
2022/09/12 04:08:32;;;;;;;66.45;26.70;;;;;;;15.50;94.08;101441.78;5034577;28;20022;-43
2022/09/12 04:11:12;;;;;;;58.38;28.77;;;;;;;15.54;93.86;101442.25;5001986;28;20030;-41
2022/09/12 04:13:39;;;;;;;63.53;28.70;;;;;;;15.48;93.84;101440.31;5013626;28;20105;-40
2022/09/12 04:16:05;;;;;;;67.78;29.25;;;;;;;15.42;94.45;101444.66;5017406;28;20034;-40
2022/09/12 04:18:30;;;;;;;65.88;29.25;;;;;;;15.41;95.37;101437.56;5012008;28;20073;-40
2022/09/12 04:20:56;;;;;;;60.42;28.05;;;;;;;15.42;95.81;101438.41;5013185;28;20050;-41
2022/09/12 04:23:22;;;;;;;72.07;29.30;;;;;;;15.41;95.57;101442.16;5014412;28;20086;-41
2022/09/12 04:25:58;;;;;;;65.80;30.45;;;;;;;15.38;95.86;101440.69;5029027;28;20026;-40
2022/09/12 04:28:23;;;;;;;65.32;28.42;;;;;;;15.36;96.25;101440.03;5001957;28;20045;-40
2022/09/12 04:30:49;;;;;;;73.38;31.52;;;;;;;15.38;96.47;101443.41;5017664;28;20038;-40
2022/09/12 04:33:14;;;;;;;65.57;31.45;;;;;;;15.34;96.71;101445.66;5022341;28;20025;-42
2022/09/12 04:35:40;;;;;;;66.32;29.80;;;;;;;15.32;96.51;101438.75;5016959;28;20381;-40
2022/09/12 04:38:06;;;;;;;67.30;29.02;;;;;;;15.31;96.55;101446.06;5025233;28;20029;-40
2022/09/12 04:40:32;;;;;;;66.38;30.58;;;;;;;15.26;96.45;101443.09;5035749;28;20042;-40
2022/09/12 04:42:57;;;;;;;72.13;31.00;;;;;;;15.24;96.42;101447.03;5020109;28;20033;-41
2022/09/12 04:45:23;;;;;;;67.30;30.60;;;;;;;15.20;96.73;101451.19;5014021;28;20022;-42
2022/09/12 04:47:48;;;;;;;72.50;31.40;;;;;;;15.19;97.02;101442.19;5017584;28;20029;-41
2022/09/12 04:50:14;;;;;;;73.78;31.40;;;;;;;15.19;97.02;101444.09;5018620;28;20169;-39
2022/09/12 04:52:40;;;;;;;70.40;31.13;;;;;;;15.20;97.17;101451.19;5021087;28;20034;-40
2022/09/12 04:55:06;;;;;;;75.03;31.50;;;;;;;15.18;96.91;101442.41;5023508;28;20113;-41
2022/09/12 04:57:32;;;;;;;74.47;32.55;;;;;;;15.12;96.97;101444.88;5016732;28;20057;-40
2022/09/12 04:59:58;;;;;;;68.85;30.13;;;;;;;15.10;97.03;101446.13;5019344;28;20069;-41
2022/09/12 05:02:23;;;;;;;73.25;30.90;;;;;;;15.07;97.77;101441.09;5017917;28;20038;-40
2022/09/12 05:04:49;;;;;;;81.82;32.15;;;;;;;15.02;97.81;101443.56;5016822;28;20030;-41
2022/09/12 05:07:14;;;;;;;75.72;32.47;;;;;;;15.02;98.18;101440.84;5027127;28;20049;-41
2022/09/12 05:09:40;;;;;;;67.18;31.25;;;;;;;15.00;98.53;101435.59;5036863;28;20026;-40
2022/09/12 05:12:06;;;;;;;81.30;33.30;;;;;;;15.00;98.21;101441.03;5024455;28;20046;-40
2022/09/12 05:14:32;;;;;;;78.22;33.45;;;;;;;15.02;97.79;101432.72;4999560;28;20036;-42
2022/09/12 05:17:00;;;;;;;78.35;34.72;;;;;;;15.02;97.86;101438.97;5028490;28;20059;-42
2022/09/12 05:19:26;;;;;;;78.25;32.42;;;;;;;14.98;97.41;101426.84;5031079;28;20022;-40
2022/09/12 05:21:51;;;;;;;81.10;35.78;;;;;;;14.96;97.49;101423.50;5028240;28;20036;-39
2022/09/12 05:24:16;;;;;;;73.50;34.13;;;;;;;14.94;98.06;101420.13;5030860;28;20050;-39
2022/09/12 05:26:42;;;;;;;82.15;34.15;;;;;;;14.94;98.52;101417.44;5030952;28;20112;-40
2022/09/12 05:29:07;;;;;;;78.30;33.13;;;;;;;14.91;98.84;101415.13;5030803;28;20129;-41
2022/09/12 05:31:33;;;;;;;87.13;34.88;;;;;;;14.90;98.72;101414.28;5029407;28;20026;-43
2022/09/12 05:33:59;;;;;;;76.65;32.50;;;;;;;14.91;98.79;101415.13;5027261;28;20017;-43
2022/09/12 05:36:26;;;;;;;86.30;35.33;;;;;;;14.94;98.50;101409.28;5028714;28;20068;-40
2022/09/12 05:38:52;;;;;;;87.65;35.58;;;;;;;14.95;98.29;101408.25;5012824;28;20025;-42
2022/09/12 05:41:26;;;;;;;88.40;37.17;;;;;;;14.93;98.03;101415.75;5029945;28;20044;-40
2022/09/12 05:43:53;;;;;;;85.70;35.45;;;;;;;14.96;98.53;101419.94;5029737;28;20026;-40
2022/09/12 05:46:20;;;;;;;86.47;35.55;;;;;;;15.01;98.97;101425.59;5030473;28;20051;-41
2022/09/12 05:48:46;;;;;;;82.65;37.03;;;;;;;15.06;99.26;101428.56;5028725;28;20041;-40
2022/09/12 05:51:20;;;;;;;85.55;35.83;;;;;;;15.09;98.87;101429.00;5027332;28;20092;-40
2022/09/12 05:53:47;;;;;;;89.55;35.78;;;;;;;15.15;98.55;101433.63;5026489;28;20356;-42
2022/09/12 05:56:15;;;;;;;81.50;34.95;;;;;;;15.21;98.43;101426.59;5015355;28;20102;-41
2022/09/12 05:58:42;;;;;;;84.90;35.58;;;;;;;15.24;97.56;101425.34;5025735;28;20040;-42
2022/09/12 06:01:13;;;;;;;80.38;34.83;;;;;;;15.32;97.23;101422.47;5025022;28;20022;-42
2022/09/12 06:03:41;;;;;;;85.95;36.78;;;;;;;15.34;96.71;101425.84;5026241;28;20034;-40
2022/09/12 06:06:07;;;;;;;76.80;34.58;;;;;;;15.34;96.69;101428.53;5023701;28;20026;-42
2022/09/12 06:08:34;;;;;;;85.63;35.85;;;;;;;15.42;96.85;101420.25;5028006;28;20527;-42
2022/09/12 06:11:03;;;;;;;83.35;35.75;;;;;;;15.44;96.57;101410.03;5025826;28;20080;-41
2022/09/12 06:13:33;;;;;;;84.90;36.63;;;;;;;15.50;95.61;101420.06;5026339;28;20037;-43
2022/09/12 06:16:13;;;;;;;86.28;36.30;;;;;;;15.58;95.19;101417.19;5022895;28;20528;-43
2022/09/12 06:18:40;;;;;;;91.25;36.08;;;;;;;15.53;94.99;101419.72;5023489;28;20041;-40
2022/09/12 06:21:10;;;;;;;81.22;35.25;;;;;;;15.56;94.76;101418.44;5024328;28;20106;-41
2022/09/12 06:23:36;;;;;;;89.10;35.63;;;;;;;15.66;94.82;101412.66;5025299;28;20029;-42
2022/09/12 06:26:03;;;;;;;91.85;37.00;;;;;;;15.72;94.37;101417.31;5028823;28;20039;-40
2022/09/12 06:28:29;;;;;;;79.38;35.55;;;;;;;15.71;94.25;101416.47;5007419;28;20041;-42
2022/09/12 06:31:03;;;;;;;79.93;36.28;;;;;;;15.75;94.23;101411.50;5024173;28;20049;-41
2022/09/12 06:33:30;;;;;;;96.60;39.55;;;;;;;15.87;94.19;101409.84;5021399;28;20037;-40
2022/09/12 06:36:04;;;;;;;91.13;38.85;;;;;;;15.96;93.93;101418.66;5025074;28;20297;-43
2022/09/12 06:38:30;;;;;;;83.45;36.35;;;;;;;16.10;93.39;101414.09;5025829;28;20145;-41
2022/09/12 06:40:56;;;;;;;85.15;37.88;;;;;;;16.21;93.09;101408.91;5025318;28;20034;-41
2022/09/12 06:43:21;;;;;;;89.63;39.60;;;;;;;16.58;92.34;101416.69;5020876;28;20061;-40
2022/09/12 06:45:48;;;;;;;86.63;38.95;;;;;;;17.37;88.23;101420.44;5024410;28;20065;-40
2022/09/12 06:48:13;;;;;;;81.32;36.67;;;;;;;18.25;84.63;101422.66;5026959;28;20025;-40
2022/09/12 06:50:38;;;;;;;77.63;35.10;;;;;;;19.05;80.92;101426.47;5028627;28;20082;-42
2022/09/12 06:53:04;;;;;;;82.80;36.00;;;;;;;19.63;76.45;101425.22;5023812;28;20030;-42
2022/09/12 06:55:29;;;;;;;77.65;36.85;;;;;;;20.38;73.93;101432.28;5024835;28;20057;-44
2022/09/12 06:57:54;;;;;;;76.63;37.42;;;;;;;20.49;72.24;101433.38;5028883;28;20100;-41
2022/09/12 07:00:20;;;;;;;79.47;37.65;;;;;;;20.62;70.48;101438.69;5028093;28;20029;-41
2022/09/12 07:02:45;;;;;;;81.40;36.97;;;;;;;20.79;70.06;101438.81;5028942;28;20050;-39
2022/09/12 07:05:11;;;;;;;75.15;36.75;;;;;;;20.45;70.17;101443.94;5028360;28;20300;-42
2022/09/12 07:07:37;;;;;;;73.43;34.25;;;;;;;20.68;70.60;101443.19;5029968;28;20033;-43
2022/09/12 07:10:03;;;;;;;75.85;34.72;;;;;;;21.57;66.53;101450.53;5021456;28;20066;-43
2022/09/12 07:12:28;;;;;;;74.55;35.13;;;;;;;22.41;64.01;101441.81;5020324;28;20034;-43
2022/09/12 07:14:54;;;;;;;62.67;32.15;;;;;;;22.77;62.64;101446.00;5028760;28;20113;-41
2022/09/12 07:17:19;;;;;;;64.65;31.50;;;;;;;23.11;61.04;101440.56;5022458;28;20037;-41
2022/09/12 07:19:45;;;;;;;63.92;28.92;;;;;;;23.26;60.18;101434.47;5026025;28;20042;-39
2022/09/12 07:22:10;;;;;;;59.17;27.73;;;;;;;23.65;58.74;101438.03;5026190;28;20033;-40
2022/09/12 07:24:36;;;;;;;50.88;26.40;;;;;;;24.06;58.41;101438.53;5025907;28;20026;-39
2022/09/12 07:27:01;;;;;;;54.70;25.27;;;;;;;25.29;52.49;101436.94;5022668;28;20014;-42
2022/09/12 07:29:27;;;;;;;54.83;24.48;;;;;;;23.70;55.59;101429.84;5024085;28;20057;-40
2022/09/12 07:31:52;;;;;;;57.40;25.80;;;;;;;23.33;57.92;101440.59;5025224;28;20045;-39
2022/09/12 07:34:17;;;;;;;49.40;24.60;;;;;;;22.80;60.77;101440.03;5021249;28;20084;-40
2022/09/12 07:36:43;;;;;;;43.35;22.80;;;;;;;22.57;60.08;101430.06;5019496;28;20041;-39
2022/09/12 07:39:08;;;;;;;47.92;22.48;;;;;;;22.75;59.77;101438.03;5017292;28;20037;-40
2022/09/12 07:41:34;;;;;;;41.03;19.75;;;;;;;23.27;58.91;101434.19;5023244;28;20454;-40
2022/09/12 07:44:00;;;;;;;43.95;20.95;;;;;;;24.30;53.91;101434.44;5021570;28;20048;-40
2022/09/12 07:46:28;;;;;;;42.55;20.92;;;;;;;24.48;54.54;101432.41;5021250;28;20098;-40
2022/09/12 07:48:55;;;;;;;40.45;20.63;;;;;;;24.97;52.75;101432.28;5022178;28;20090;-39
2022/09/12 07:51:21;;;;;;;36.70;20.33;;;;;;;25.52;51.31;101435.69;5022103;28;20481;-40
2022/09/12 07:53:48;;;;;;;33.13;19.23;;;;;;;24.60;53.66;101433.09;5017251;28;20048;-40
2022/09/12 07:56:14;;;;;;;35.03;18.90;;;;;;;25.40;52.03;101439.47;5017328;28;20022;-39
2022/09/12 07:58:40;;;;;;;36.97;18.63;;;;;;;24.97;52.60;101435.03;5017250;28;20037;-41
2022/09/12 08:01:14;;;;;;;32.05;17.85;;;;;;;25.77;51.86;101429.47;5019631;28;20064;-41
2022/09/12 08:03:40;;;;;;;29.02;17.98;;;;;;;25.72;51.42;101434.94;5013900;28;20113;-40
2022/09/12 08:06:15;;;;;;;34.75;18.85;;;;;;;24.80;52.75;101439.84;5021850;28;20485;-39
2022/09/12 08:08:41;;;;;;;36.47;18.25;;;;;;;25.87;50.63;101446.06;5022273;28;20409;-39
2022/09/12 08:11:09;;;;;;;34.65;18.20;;;;;;;25.54;51.81;101439.84;5030397;28;20054;-39
2022/09/12 08:13:35;;;;;;;31.85;19.20;;;;;;;24.50;52.68;101433.00;5023458;28;20139;-41
2022/09/12 08:16:04;;;;;;;34.08;18.35;;;;;;;24.45;53.54;101432.94;5023606;28;20097;-39
2022/09/12 08:18:31;;;;;;;30.10;17.40;;;;;;;24.26;53.89;101436.03;5024470;28;20029;-40
2022/09/12 08:21:04;;;;;;;37.95;17.90;;;;;;;24.21;54.67;101429.66;5022700;28;20018;-40
2022/09/12 08:23:30;;;;;;;31.77;17.50;;;;;;;24.75;52.48;101435.97;5021570;28;20029;-38
2022/09/12 08:26:01;;;;;;;29.40;16.48;;;;;;;24.79;52.84;101432.69;5017525;28;20465;-38
2022/09/12 08:28:27;;;;;;;28.15;16.83;;;;;;;24.35;53.33;101430.88;5018010;28;20052;-41
2022/09/12 08:30:53;;;;;;;26.15;15.48;;;;;;;25.86;49.74;101438.91;5023123;28;20033;-39
2022/09/12 08:33:19;;;;;;;29.02;13.15;;;;;;;25.92;49.04;101432.31;5023400;28;20130;-40
2022/09/12 08:35:45;;;;;;;23.17;13.30;;;;;;;24.62;51.16;101439.16;5022284;28;20100;-41
2022/09/12 08:38:10;;;;;;;28.80;15.18;;;;;;;24.39;51.35;101431.22;5017877;28;20029;-39
2022/09/12 08:41:08;;;;;;;33.63;15.55;;;;;;;24.06;53.06;101433.03;5018658;28;20059;-39
2022/09/12 08:43:42;;;;;;;24.25;14.13;;;;;;;24.03;52.54;101422.56;4976205;28;20046;-38
2022/09/12 08:46:14;;;;;;;24.02;12.93;;;;;;;24.60;51.25;101424.84;4998920;28;20030;-39
2022/09/12 08:48:40;;;;;;;24.30;14.70;;;;;;;23.91;53.20;101425.47;5000342;28;20037;-39
2022/09/12 08:51:09;;;;;;;24.95;12.55;;;;;;;24.16;52.72;101430.41;4999657;28;20022;-39
2022/09/12 08:53:36;;;;;;;18.40;11.82;;;;;;;24.99;50.66;101430.09;5000251;28;20030;-39
2022/09/12 08:56:03;;;;;;;20.87;10.67;;;;;;;26.14;49.59;101436.78;5013114;28;20030;-41
2022/09/12 08:58:30;;;;;;;17.08;10.32;;;;;;;26.57;47.68;101431.91;4995113;28;20361;-40
2022/09/12 09:01:09;;;;;;;18.27;10.30;;;;;;;26.64;46.36;101432.47;4992710;28;20077;-43
2022/09/12 09:03:44;;;;;;;19.48;10.25;;;;;;;25.61;48.01;101431.31;4994314;28;20018;-43
2022/09/12 09:06:29;;;;;;;17.65;9.38;;;;;;;25.21;49.06;101427.25;5010607;28;20160;-40
2022/09/12 09:09:04;;;;;;;18.02;7.20;;;;;;;25.12;47.70;101420.53;5012115;28;20045;-40
2022/09/12 09:11:45;;;;;;;10.82;5.90;;;;;;;25.62;46.24;101421.97;5009315;28;20124;-41
2022/09/12 09:17:10;;;;;;;6.50;4.50;;;;;;;25.31;44.53;101415.47;5015284;28;20117;-39
2022/09/12 09:19:40;;;;;;;9.15;4.30;;;;;;;24.23;46.67;101411.78;5017673;28;20034;-38
2022/09/12 09:22:12;;;;;;;12.05;5.15;;;;;;;24.03;49.02;101406.91;5000512;28;20034;-38
2022/09/12 09:24:41;;;;;;;7.13;4.40;;;;;;;24.44;47.61;101406.50;5000987;28;20167;-38
2022/09/12 09:27:18;;;;;;;10.57;4.70;;;;;;;23.99;49.05;101404.94;5018171;28;20384;-40
2022/09/12 09:29:48;;;;;;;6.82;4.07;;;;;;;24.74;47.22;101398.50;4999617;28;20057;-39
2022/09/12 09:32:17;;;;;;;9.20;4.40;;;;;;;24.50;48.19;101392.53;4998908;28;20060;-39
2022/09/12 09:34:43;;;;;;;11.63;5.45;;;;;;;24.92;47.44;101385.44;5017591;28;20426;-39
2022/09/12 09:37:18;;;;;;;9.43;4.10;;;;;;;24.74;47.43;101394.94;5018670;28;20075;-38
2022/09/12 09:40:05;;;;;;;10.75;5.10;;;;;;;24.54;48.56;101379.09;5026371;28;20049;-39
2022/09/12 09:42:42;;;;;;;;;;;;;;;23.96;50.28;101383.44;5026731;28;20050;-40
2022/09/12 09:45:16;;;;;;;7.20;4.45;;;;;;;23.71;49.70;101393.03;5026154;28;19913;-40
2022/09/12 09:47:48;;;;;;;10.52;4.85;;;;;;;23.30;52.30;101387.03;5007677;28;20046;-39
2022/09/12 09:50:16;;;;;;;12.20;5.40;;;;;;;22.77;52.82;101389.22;5007592;28;20026;-40
2022/09/12 09:52:41;;;;;;;9.18;4.68;;;;;;;22.67;52.87;101382.72;5025009;28;20026;-40
2022/09/12 09:55:13;;;;;;;12.73;5.22;;;;;;;22.54;53.38;101372.94;5026784;28;20436;-40
2022/09/12 09:57:40;;;;;;;10.95;5.03;;;;;;;22.86;53.77;101372.34;5009694;28;20025;-40
2022/09/12 10:00:28;;;;;;;;;;;;;;;22.80;53.29;101368.66;5025972;28;20422;-41
2022/09/12 10:02:58;;;;;;;8.60;4.88;;;;;;;22.55;53.41;101375.41;5026678;28;19932;-40
2022/09/12 10:05:23;;;;;;;9.63;4.75;;;;;;;22.24;53.57;101365.00;5026941;28;20040;-40
2022/09/12 10:07:49;;;;;;;9.95;5.03;;;;;;;22.27;54.70;101361.75;5004503;28;20501;-41
2022/09/12 10:10:17;;;;;;;8.00;5.10;;;;;;;22.29;55.20;101362.34;5009188;28;20124;-40
2022/09/12 10:12:43;;;;;;;12.50;5.93;;;;;;;22.23;55.53;101360.63;5027321;28;20057;-38
2022/09/12 10:15:25;;;;;;;9.98;4.97;;;;;;;22.43;56.17;101349.97;5025239;28;20022;-39
2022/09/12 10:17:51;;;;;;;15.82;5.97;;;;;;;22.40;56.08;101355.97;5026238;28;20125;-40
2022/09/12 10:20:29;;;;;;;9.30;5.47;;;;;;;22.47;55.54;101340.19;5009853;28;20022;-40
2022/09/12 10:22:54;;;;;;;10.75;5.88;;;;;;;22.45;56.86;101342.34;5027552;28;20049;-39
2022/09/12 10:25:21;;;;;;;13.95;5.70;;;;;;;22.45;56.22;101350.56;5009230;28;20041;-39
2022/09/12 10:27:53;;;;;;;12.10;5.65;;;;;;;22.30;56.50;101345.66;5006956;28;20026;-39
2022/09/12 10:30:20;;;;;;;11.98;6.28;;;;;;;22.32;56.37;101350.88;5007425;28;20062;-39
2022/09/12 10:32:51;;;;;;;11.60;6.38;;;;;;;22.44;55.95;101353.56;5003052;28;20083;-41
2022/09/12 10:35:32;;;;;;;12.45;6.72;;;;;;;22.28;57.67;101347.81;5027028;28;20082;-40
2022/09/12 10:38:01;;;;;;;11.35;6.10;;;;;;;22.42;57.67;101348.31;5007783;28;20083;-40
2022/09/12 10:40:34;;;;;;;18.10;6.90;;;;;;;22.32;56.99;101353.63;4992297;28;20029;-40
2022/09/12 10:43:01;;;;;;;17.88;7.20;;;;;;;22.35;57.39;101348.50;5027508;28;20029;-40
2022/09/12 10:45:34;;;;;;;10.65;5.95;;;;;;;22.46;58.56;101346.75;5028855;28;20519;-40
2022/09/12 10:48:01;;;;;;;18.50;5.63;;;;;;;22.56;57.57;101348.81;5026556;28;20057;-40
2022/09/12 10:50:30;;;;;;;10.52;4.57;;;;;;;22.60;56.06;101349.16;5025410;28;20042;-40
2022/09/12 10:53:14;;;;;;;11.43;5.18;;;;;;;22.59;55.20;101348.31;5022427;28;20026;-40
2022/09/12 10:55:41;;;;;;;7.60;5.25;;;;;;;22.65;54.92;101358.31;5026437;28;20061;-39
2022/09/12 10:58:25;;;;;;;;;;;;;;;22.41;55.58;101356.78;4996292;28;20018;-40
2022/09/12 11:01:00;;;;;;;11.57;4.78;;;;;;;22.65;56.29;101358.31;5026548;28;19937;-39
2022/09/12 11:03:44;;;;;;;9.57;4.60;;;;;;;23.07;55.00;101348.81;5028279;28;20041;-40
2022/09/12 11:06:12;;;;;;;7.18;4.30;;;;;;;23.12;54.51;101354.38;5012235;28;20029;-40
2022/09/12 11:08:52;;;;;;;21.55;5.55;;;;;;;22.96;54.26;101345.91;4998551;28;20090;-41
2022/09/12 11:11:39;;;;;;;7.70;4.80;;;;;;;23.46;52.83;101335.88;5021006;28;20174;-39
2022/09/12 11:14:08;;;;;;;13.13;5.40;;;;;;;23.37;51.76;101332.72;5009499;28;20145;-40
2022/09/12 11:16:51;;;;;;;9.32;4.75;;;;;;;23.57;51.09;101342.31;5008580;28;20065;-39
2022/09/12 11:19:46;;;;;;;9.75;4.70;;;;;;;23.27;52.21;101340.00;5007292;28;20426;-40
2022/09/12 11:22:20;;;;;;;11.10;4.25;;;;;;;23.62;51.85;101340.44;5008832;28;20081;-40
2022/09/12 11:25:23;;;;;;;10.98;4.25;;;;;;;23.96;49.95;101339.44;5029080;28;20032;-42
2022/09/12 11:27:56;;;;;;;9.30;4.20;;;;;;;24.39;49.27;101344.00;5012344;28;20022;-39
2022/09/12 11:30:22;;;;;;;7.88;4.32;;;;;;;24.85;48.10;101335.28;5028451;28;20331;-40
2022/09/12 11:33:06;;;;;;;10.48;3.80;;;;;;;25.68;47.00;101334.59;5028372;28;20037;-40
2022/09/12 11:35:33;;;;;;;5.57;3.30;;;;;;;25.55;45.31;101347.78;5027726;28;20033;-41